sensor_id;sensor_type;location;lat;lon;timestamp;pressure;altitude;pressure_sealevel;temperature;humidity
60061;BME280;45933;51.336;12.612;2023-03-07T00:00:23;98448.16;;;2.67;66.22
60061;BME280;45933;51.336;12.612;2023-03-07T00:02:50;98452.44;;;2.67;66.64
60061;BME280;45933;51.336;12.612;2023-03-07T00:05:16;98447.31;;;2.67;66.40
60061;BME280;45933;51.336;12.612;2023-03-07T00:07:41;98443.88;;;2.63;66.80
60061;BME280;45933;51.336;12.612;2023-03-07T00:10:07;98442.16;;;2.70;66.17
60061;BME280;45933;51.336;12.612;2023-03-07T00:12:33;98435.28;;;2.62;67.17
60061;BME280;45933;51.336;12.612;2023-03-07T00:14:58;98439.59;;;2.71;66.59
60061;BME280;45933;51.336;12.612;2023-03-07T00:17:23;98442.16;;;2.77;66.23
60061;BME280;45933;51.336;12.612;2023-03-07T00:19:48;98438.72;;;2.74;66.51
60061;BME280;45933;51.336;12.612;2023-03-07T00:22:14;98434.44;;;2.73;66.78
60061;BME280;45933;51.336;12.612;2023-03-07T00:24:39;98429.28;;;2.76;66.41
60061;BME280;45933;51.336;12.612;2023-03-07T00:27:04;98422.41;;;2.78;66.45
60061;BME280;45933;51.336;12.612;2023-03-07T00:29:30;98426.72;;;2.76;66.49
60061;BME280;45933;51.336;12.612;2023-03-07T00:31:55;98422.44;;;2.75;67.03
60061;BME280;45933;51.336;12.612;2023-03-07T00:34:21;98418.13;;;2.81;66.55
60061;BME280;45933;51.336;12.612;2023-03-07T00:36:46;98417.28;;;2.78;66.80
60061;BME280;45933;51.336;12.612;2023-03-07T00:39:11;98410.41;;;2.86;66.66
60061;BME280;45933;51.336;12.612;2023-03-07T00:41:37;98402.69;;;2.83;66.67
60061;BME280;45933;51.336;12.612;2023-03-07T00:44:02;98408.72;;;2.80;66.72
60061;BME280;45933;51.336;12.612;2023-03-07T00:46:27;98400.13;;;2.87;66.53
60061;BME280;45933;51.336;12.612;2023-03-07T00:48:53;98397.53;;;2.89;66.36
60061;BME280;45933;51.336;12.612;2023-03-07T00:51:19;98391.53;;;2.85;66.49
60061;BME280;45933;51.336;12.612;2023-03-07T00:53:45;98386.38;;;2.92;66.04
60061;BME280;45933;51.336;12.612;2023-03-07T00:56:19;98382.09;;;2.86;66.41
60061;BME280;45933;51.336;12.612;2023-03-07T00:58:45;98375.25;;;2.85;66.49
60061;BME280;45933;51.336;12.612;2023-03-07T01:01:12;98364.06;;;2.92;66.00
60061;BME280;45933;51.336;12.612;2023-03-07T01:03:38;98370.94;;;2.93;66.20
60061;BME280;45933;51.336;12.612;2023-03-07T01:06:06;98373.53;;;2.90;66.14
60061;BME280;45933;51.336;12.612;2023-03-07T01:08:33;98362.38;;;2.85;66.06
60061;BME280;45933;51.336;12.612;2023-03-07T01:11:00;98358.09;;;2.82;66.54
60061;BME280;45933;51.336;12.612;2023-03-07T01:13:26;98350.38;;;2.90;65.86
60061;BME280;45933;51.336;12.612;2023-03-07T01:15:51;98352.94;;;2.82;66.26
60061;BME280;45933;51.336;12.612;2023-03-07T01:18:16;98341.78;;;2.86;66.09
60061;BME280;45933;51.336;12.612;2023-03-07T01:20:43;98345.22;;;2.90;66.06
60061;BME280;45933;51.336;12.612;2023-03-07T01:23:08;98338.38;;;2.78;66.24
60061;BME280;45933;51.336;12.612;2023-03-07T01:25:41;98340.94;;;2.86;66.16
60061;BME280;45933;51.336;12.612;2023-03-07T01:28:08;98331.50;;;2.80;66.38
60061;BME280;45933;51.336;12.612;2023-03-07T01:30:36;98329.78;;;2.87;65.80
60061;BME280;45933;51.336;12.612;2023-03-07T01:33:02;98319.50;;;2.81;66.09
60061;BME280;45933;51.336;12.612;2023-03-07T01:35:27;98310.06;;;2.83;66.37
60061;BME280;45933;51.336;12.612;2023-03-07T01:37:53;98316.94;;;2.81;66.29
60061;BME280;45933;51.336;12.612;2023-03-07T01:40:21;98311.81;;;2.75;66.51
60061;BME280;45933;51.336;12.612;2023-03-07T01:42:47;98296.31;;;2.87;65.91
60061;BME280;45933;51.336;12.612;2023-03-07T01:47:41;98296.31;;;2.79;66.28
60061;BME280;45933;51.336;12.612;2023-03-07T01:50:10;98282.63;;;2.77;66.24
60061;BME280;45933;51.336;12.612;2023-03-07T01:52:41;98282.59;;;2.88;65.56
60061;BME280;45933;51.336;12.612;2023-03-07T01:55:11;98286.84;;;2.94;65.45
60061;BME280;45933;51.336;12.612;2023-03-07T01:57:39;98271.44;;;2.91;65.44
60061;BME280;45933;51.336;12.612;2023-03-07T02:00:09;98268.88;;;2.87;65.86
60061;BME280;45933;51.336;12.612;2023-03-07T02:02:36;98268.00;;;2.90;65.54
60061;BME280;45933;51.336;12.612;2023-03-07T02:05:13;98266.28;;;2.91;65.62
60061;BME280;45933;51.336;12.612;2023-03-07T02:07:43;98268.84;;;2.94;65.47
60061;BME280;45933;51.336;12.612;2023-03-07T02:10:11;98252.56;;;2.88;65.38
60061;BME280;45933;51.336;12.612;2023-03-07T02:12:39;98249.13;;;2.91;65.46
60061;BME280;45933;51.336;12.612;2023-03-07T02:15:07;98254.25;;;2.93;65.34
60061;BME280;45933;51.336;12.612;2023-03-07T02:17:33;98245.72;;;2.83;65.41
60061;BME280;45933;51.336;12.612;2023-03-07T02:20:23;98243.09;;;2.94;65.42
60061;BME280;45933;51.336;12.612;2023-03-07T02:22:50;98231.13;;;2.88;65.40
60061;BME280;45933;51.336;12.612;2023-03-07T02:25:21;98227.66;;;2.94;65.21
60061;BME280;45933;51.336;12.612;2023-03-07T02:27:51;98227.69;;;2.91;65.35
60061;BME280;45933;51.336;12.612;2023-03-07T02:30:18;98227.63;;;3.01;65.01
60061;BME280;45933;51.336;12.612;2023-03-07T02:32:43;98215.66;;;2.93;64.95
60061;BME280;45933;51.336;12.612;2023-03-07T02:35:12;98219.09;;;2.96;64.97
60061;BME280;45933;51.336;12.612;2023-03-07T02:37:39;98203.59;;;3.02;64.70
60061;BME280;45933;51.336;12.612;2023-03-07T02:40:08;98213.03;;;3.06;64.50
60061;BME280;45933;51.336;12.612;2023-03-07T02:42:38;98201.00;;;3.05;64.44
60061;BME280;45933;51.336;12.612;2023-03-07T02:45:08;98200.97;;;3.08;64.49
60061;BME280;45933;51.336;12.612;2023-03-07T02:47:34;98198.44;;;3.07;64.21
60061;BME280;45933;51.336;12.612;2023-03-07T02:49:59;98195.84;;;3.04;64.18
60061;BME280;45933;51.336;12.612;2023-03-07T02:52:25;98187.28;;;3.06;64.20
60061;BME280;45933;51.336;12.612;2023-03-07T02:54:53;98191.56;;;3.04;63.94
60061;BME280;45933;51.336;12.612;2023-03-07T02:57:18;98182.13;;;3.03;64.07
60061;BME280;45933;51.336;12.612;2023-03-07T02:59:44;98187.22;;;3.14;63.82
60061;BME280;45933;51.336;12.612;2023-03-07T03:02:09;98182.06;;;3.15;63.68
60061;BME280;45933;51.336;12.612;2023-03-07T03:04:34;98181.16;;;3.23;63.66
60061;BME280;45933;51.336;12.612;2023-03-07T03:07:00;98170.03;;;3.18;63.29
60061;BME280;45933;51.336;12.612;2023-03-07T03:09:27;98166.63;;;3.17;62.96
60061;BME280;45933;51.336;12.612;2023-03-07T03:11:52;98170.94;;;3.12;63.32
60061;BME280;45933;51.336;12.612;2023-03-07T03:14:18;98161.44;;;3.20;62.87
60061;BME280;45933;51.336;12.612;2023-03-07T03:16:43;98163.19;;;3.10;62.94
60061;BME280;45933;51.336;12.612;2023-03-07T03:19:08;98152.84;;;3.21;62.29
60061;BME280;45933;51.336;12.612;2023-03-07T03:21:34;98148.59;;;3.14;62.50
60061;BME280;45933;51.336;12.612;2023-03-07T03:24:04;98137.38;;;3.21;62.36
60061;BME280;45933;51.336;12.612;2023-03-07T03:26:29;98137.34;;;3.29;62.63
60061;BME280;45933;51.336;12.612;2023-03-07T03:28:55;98134.81;;;3.20;62.35
60061;BME280;45933;51.336;12.612;2023-03-07T03:31:20;98128.78;;;3.24;62.23
60061;BME280;45933;51.336;12.612;2023-03-07T03:33:45;98132.25;;;3.20;62.26
60061;BME280;45933;51.336;12.612;2023-03-07T03:36:15;98124.50;;;3.24;62.13
60061;BME280;45933;51.336;12.612;2023-03-07T03:38:41;98125.41;;;3.19;61.65
60061;BME280;45933;51.336;12.612;2023-03-07T03:41:09;98127.06;;;3.27;61.35
60061;BME280;45933;51.336;12.612;2023-03-07T03:43:35;98121.88;;;3.30;61.68
60061;BME280;45933;51.336;12.612;2023-03-07T03:46:01;98121.03;;;3.27;61.55
60061;BME280;45933;51.336;12.612;2023-03-07T03:48:26;98120.19;;;3.25;61.01
60061;BME280;45933;51.336;12.612;2023-03-07T03:51:06;98118.38;;;3.39;61.04
60061;BME280;45933;51.336;12.612;2023-03-07T03:53:33;98115.81;;;3.37;60.45
60061;BME280;45933;51.336;12.612;2023-03-07T03:56:04;98104.63;;;3.40;60.31
60061;BME280;45933;51.336;12.612;2023-03-07T03:58:30;98102.97;;;3.31;59.93
60061;BME280;45933;51.336;12.612;2023-03-07T04:00:56;98101.31;;;3.26;60.47
60061;BME280;45933;51.336;12.612;2023-03-07T04:03:21;98101.19;;;3.41;60.21
60061;BME280;45933;51.336;12.612;2023-03-07T04:05:47;98095.22;;;3.36;60.13
60061;BME280;45933;51.336;12.612;2023-03-07T04:08:12;98088.31;;;3.39;59.84
60061;BME280;45933;51.336;12.612;2023-03-07T04:10:37;98084.81;;;3.47;60.33
60061;BME280;45933;51.336;12.612;2023-03-07T04:13:02;98074.56;;;3.44;60.10
60061;BME280;45933;51.336;12.612;2023-03-07T04:15:28;98081.38;;;3.48;60.21
60061;BME280;45933;51.336;12.612;2023-03-07T04:17:53;98075.38;;;3.46;59.75
60061;BME280;45933;51.336;12.612;2023-03-07T04:20:18;98071.09;;;3.45;59.74
60061;BME280;45933;51.336;12.612;2023-03-07T04:22:45;98071.16;;;3.40;59.24
60061;BME280;45933;51.336;12.612;2023-03-07T04:25:11;98057.41;;;3.41;59.61
60061;BME280;45933;51.336;12.612;2023-03-07T04:27:36;98051.50;;;3.28;59.74
60061;BME280;45933;51.336;12.612;2023-03-07T04:30:01;98053.16;;;3.35;60.07
60061;BME280;45933;51.336;12.612;2023-03-07T04:32:27;98041.16;;;3.34;59.72
60061;BME280;45933;51.336;12.612;2023-03-07T04:34:52;98051.38;;;3.44;59.49
60061;BME280;45933;51.336;12.612;2023-03-07T04:37:18;98045.41;;;3.37;59.54
60061;BME280;45933;51.336;12.612;2023-03-07T04:39:43;98042.00;;;3.35;59.44
60061;BME280;45933;51.336;12.612;2023-03-07T04:42:08;98034.28;;;3.35;59.61
60061;BME280;45933;51.336;12.612;2023-03-07T04:44:33;98029.91;;;3.43;59.34
60061;BME280;45933;51.336;12.612;2023-03-07T04:46:59;98028.25;;;3.39;59.43
60061;BME280;45933;51.336;12.612;2023-03-07T04:49:24;98031.63;;;3.44;59.46
60061;BME280;45933;51.336;12.612;2023-03-07T04:51:49;98025.59;;;3.45;59.57
60061;BME280;45933;51.336;12.612;2023-03-07T04:54:15;98028.19;;;3.42;59.20
60061;BME280;45933;51.336;12.612;2023-03-07T04:56:40;98019.72;;;3.32;59.52
60061;BME280;45933;51.336;12.612;2023-03-07T04:59:05;98021.41;;;3.35;59.34
60061;BME280;45933;51.336;12.612;2023-03-07T05:01:31;98016.25;;;3.38;59.15
60061;BME280;45933;51.336;12.612;2023-03-07T05:03:56;98021.44;;;3.33;59.15
60061;BME280;45933;51.336;12.612;2023-03-07T05:06:21;98017.91;;;3.40;59.22
60061;BME280;45933;51.336;12.612;2023-03-07T05:08:47;98003.34;;;3.38;58.92
60061;BME280;45933;51.336;12.612;2023-03-07T05:11:13;98013.66;;;3.36;59.20
60061;BME280;45933;51.336;12.612;2023-03-07T05:13:38;98009.34;;;3.40;58.93
60061;BME280;45933;51.336;12.612;2023-03-07T05:16:04;98005.84;;;3.46;58.93
60061;BME280;45933;51.336;12.612;2023-03-07T05:18:29;98001.53;;;3.46;59.00
60061;BME280;45933;51.336;12.612;2023-03-07T05:20:55;97999.81;;;3.48;58.78
60061;BME280;45933;51.336;12.612;2023-03-07T05:23:20;98000.66;;;3.50;58.90
60061;BME280;45933;51.336;12.612;2023-03-07T05:25:45;98003.16;;;3.53;59.05
60061;BME280;45933;51.336;12.612;2023-03-07T05:28:14;98003.28;;;3.42;59.12
60061;BME280;45933;51.336;12.612;2023-03-07T05:30:41;97999.81;;;3.47;58.49
60061;BME280;45933;51.336;12.612;2023-03-07T05:33:07;98022.09;;;3.54;59.06
60061;BME280;45933;51.336;12.612;2023-03-07T05:35:33;97997.19;;;3.54;59.09
60061;BME280;45933;51.336;12.612;2023-03-07T05:37:58;97996.34;;;3.51;59.12
60061;BME280;45933;51.336;12.612;2023-03-07T05:40:24;97992.06;;;3.50;59.21
60061;BME280;45933;51.336;12.612;2023-03-07T05:42:49;97998.03;;;3.55;59.18
60061;BME280;45933;51.336;12.612;2023-03-07T05:45:14;97994.63;;;3.51;59.17
60061;BME280;45933;51.336;12.612;2023-03-07T05:47:40;97992.72;;;3.70;59.00
60061;BME280;45933;51.336;12.612;2023-03-07T05:50:06;97994.50;;;3.62;59.33
60061;BME280;45933;51.336;12.612;2023-03-07T05:52:31;97998.78;;;3.63;59.37
60061;BME280;45933;51.336;12.612;2023-03-07T05:54:56;98006.38;;;3.75;59.19
60061;BME280;45933;51.336;12.612;2023-03-07T05:57:22;97995.22;;;3.73;59.42
60061;BME280;45933;51.336;12.612;2023-03-07T05:59:47;98005.53;;;3.75;59.30
60061;BME280;45933;51.336;12.612;2023-03-07T06:02:12;97997.00;;;3.70;59.62
60061;BME280;45933;51.336;12.612;2023-03-07T06:04:38;98000.38;;;3.76;59.48
60061;BME280;45933;51.336;12.612;2023-03-07T06:07:03;98002.09;;;3.76;59.49
60061;BME280;45933;51.336;12.612;2023-03-07T06:09:28;97996.94;;;3.76;60.02
60061;BME280;45933;51.336;12.612;2023-03-07T06:11:54;98005.47;;;3.81;59.99
60061;BME280;45933;51.336;12.612;2023-03-07T06:14:19;97996.13;;;3.71;60.24
60061;BME280;45933;51.336;12.612;2023-03-07T06:16:45;98006.38;;;3.77;60.24
60061;BME280;45933;51.336;12.612;2023-03-07T06:19:10;98012.25;;;3.85;60.07
60061;BME280;45933;51.336;12.612;2023-03-07T06:21:35;98018.25;;;3.88;59.92
60061;BME280;45933;51.336;12.612;2023-03-07T06:24:01;98009.78;;;3.80;60.41
60061;BME280;45933;51.336;12.612;2023-03-07T06:26:26;98010.63;;;3.81;60.32
60061;BME280;45933;51.336;12.612;2023-03-07T06:28:51;98008.84;;;3.84;60.34
60061;BME280;45933;51.336;12.612;2023-03-07T06:31:18;98009.72;;;3.83;60.45
60061;BME280;45933;51.336;12.612;2023-03-07T06:33:44;98023.44;;;3.85;60.80
60061;BME280;45933;51.336;12.612;2023-03-07T06:36:11;97998.63;;;3.77;60.97
60061;BME280;45933;51.336;12.612;2023-03-07T06:38:38;98005.47;;;3.81;60.83
60061;BME280;45933;51.336;12.612;2023-03-07T06:41:04;98020.84;;;3.87;60.96
60061;BME280;45933;51.336;12.612;2023-03-07T06:43:29;98002.88;;;3.79;61.16
60061;BME280;45933;51.336;12.612;2023-03-07T06:45:54;98005.44;;;3.82;61.38
60061;BME280;45933;51.336;12.612;2023-03-07T06:48:20;98009.63;;;3.91;60.87
60061;BME280;45933;51.336;12.612;2023-03-07T06:50:46;98008.97;;;3.74;61.61
60061;BME280;45933;51.336;12.612;2023-03-07T06:53:11;98017.44;;;3.83;61.23
60061;BME280;45933;51.336;12.612;2023-03-07T06:55:37;98005.41;;;3.84;61.41
60061;BME280;45933;51.336;12.612;2023-03-07T06:58:02;98013.13;;;3.87;61.32
60061;BME280;45933;51.336;12.612;2023-03-07T07:00:27;98017.28;;;3.97;61.28
60061;BME280;45933;51.336;12.612;2023-03-07T07:02:53;98014.75;;;3.94;61.25
60061;BME280;45933;51.336;12.612;2023-03-07T07:05:19;98014.75;;;3.96;61.29
60061;BME280;45933;51.336;12.612;2023-03-07T07:07:44;98023.44;;;3.84;61.43
60061;BME280;45933;51.336;12.612;2023-03-07T07:10:10;98013.00;;;3.96;61.24
60061;BME280;45933;51.336;12.612;2023-03-07T07:12:35;98018.13;;;3.99;61.24
60061;BME280;45933;51.336;12.612;2023-03-07T07:15:01;98016.50;;;3.92;61.40
60061;BME280;45933;51.336;12.612;2023-03-07T07:17:28;98008.63;;;4.03;61.00
60061;BME280;45933;51.336;12.612;2023-03-07T07:19:54;98008.66;;;4.00;61.25
60061;BME280;45933;51.336;12.612;2023-03-07T07:22:19;98005.97;;;4.09;61.05
60061;BME280;45933;51.336;12.612;2023-03-07T07:24:44;98011.97;;;4.09;61.05
60061;BME280;45933;51.336;12.612;2023-03-07T07:27:10;98000.75;;;4.13;60.98
60061;BME280;45933;51.336;12.612;2023-03-07T07:29:35;98005.88;;;4.15;61.16
60061;BME280;45933;51.336;12.612;2023-03-07T07:32:00;98019.69;;;4.11;61.33
60061;BME280;45933;51.336;12.612;2023-03-07T07:34:26;98011.09;;;4.10;61.38
60061;BME280;45933;51.336;12.612;2023-03-07T07:36:51;98006.75;;;4.17;61.09
60061;BME280;45933;51.336;12.612;2023-03-07T07:39:17;98012.69;;;4.20;61.24
60061;BME280;45933;51.336;12.612;2023-03-07T07:41:43;98010.97;;;4.23;61.19
60061;BME280;45933;51.336;12.612;2023-03-07T07:44:09;98001.66;;;4.09;61.72
60061;BME280;45933;51.336;12.612;2023-03-07T07:46:35;98009.38;;;4.12;61.54
60061;BME280;45933;51.336;12.612;2023-03-07T07:49:01;98008.34;;;4.24;61.36
60061;BME280;45933;51.336;12.612;2023-03-07T07:51:26;98014.28;;;4.31;61.17
60061;BME280;45933;51.336;12.612;2023-03-07T07:53:51;98007.38;;;4.31;61.07
60061;BME280;45933;51.336;12.612;2023-03-07T07:56:17;98006.44;;;4.37;61.08
60061;BME280;45933;51.336;12.612;2023-03-07T07:58:42;97998.75;;;4.35;61.22
60061;BME280;45933;51.336;12.612;2023-03-07T08:01:34;98003.03;;;4.35;61.50
60061;BME280;45933;51.336;12.612;2023-03-07T08:03:59;97998.69;;;4.37;61.20
60061;BME280;45933;51.336;12.612;2023-03-07T08:06:26;97996.06;;;4.41;61.11
60061;BME280;45933;51.336;12.612;2023-03-07T08:08:52;98003.72;;;4.49;60.93
60061;BME280;45933;51.336;12.612;2023-03-07T08:11:18;98013.31;;;4.39;60.90
60061;BME280;45933;51.336;12.612;2023-03-07T08:13:44;98005.34;;;4.53;60.43
60061;BME280;45933;51.336;12.612;2023-03-07T08:16:16;97996.84;;;4.46;60.53
60061;BME280;45933;51.336;12.612;2023-03-07T08:18:47;97994.28;;;4.46;61.13
60061;BME280;45933;51.336;12.612;2023-03-07T08:21:13;97993.34;;;4.54;60.45
60061;BME280;45933;51.336;12.612;2023-03-07T08:23:38;97985.44;;;4.64;60.08
60061;BME280;45933;51.336;12.612;2023-03-07T08:26:05;97981.72;;;4.79;59.81
60061;BME280;45933;51.336;12.612;2023-03-07T08:28:31;97984.47;;;4.68;59.37
60061;BME280;45933;51.336;12.612;2023-03-07T08:30:56;97974.00;;;4.78;59.48
60061;BME280;45933;51.336;12.612;2023-03-07T08:33:22;97982.50;;;4.84;59.50
60061;BME280;45933;51.336;12.612;2023-03-07T08:35:47;97971.19;;;4.93;59.29
60061;BME280;45933;51.336;12.612;2023-03-07T08:38:12;97969.41;;;4.95;59.34
60061;BME280;45933;51.336;12.612;2023-03-07T08:40:37;97970.19;;;5.02;59.27
60061;BME280;45933;51.336;12.612;2023-03-07T08:43:03;97971.06;;;4.99;58.99
60061;BME280;45933;51.336;12.612;2023-03-07T08:45:29;97962.38;;;5.05;58.61
60061;BME280;45933;51.336;12.612;2023-03-07T08:47:55;97971.69;;;5.13;59.00
60061;BME280;45933;51.336;12.612;2023-03-07T08:50:22;97961.34;;;5.15;58.47
60061;BME280;45933;51.336;12.612;2023-03-07T08:52:47;97965.56;;;5.19;58.41
60061;BME280;45933;51.336;12.612;2023-03-07T08:55:13;97972.31;;;5.28;58.61
60061;BME280;45933;51.336;12.612;2023-03-07T08:57:38;97955.84;;;5.33;58.25
60061;BME280;45933;51.336;12.612;2023-03-07T09:00:04;97978.13;;;5.39;58.32
60061;BME280;45933;51.336;12.612;2023-03-07T09:02:32;97969.53;;;5.37;58.26
60061;BME280;45933;51.336;12.612;2023-03-07T09:04:58;97988.63;;;5.30;57.46
60061;BME280;45933;51.336;12.612;2023-03-07T09:07:23;97960.81;;;5.42;57.81
60061;BME280;45933;51.336;12.612;2023-03-07T09:09:48;97974.66;;;5.40;57.58
60061;BME280;45933;51.336;12.612;2023-03-07T09:12:13;97971.72;;;5.60;57.47
60061;BME280;45933;51.336;12.612;2023-03-07T09:14:39;97955.03;;;5.74;57.56
60061;BME280;45933;51.336;12.612;2023-03-07T09:17:04;97959.25;;;5.80;57.41
60061;BME280;45933;51.336;12.612;2023-03-07T09:19:29;97948.91;;;5.78;57.42
60061;BME280;45933;51.336;12.612;2023-03-07T09:21:55;97950.53;;;5.84;57.21
60061;BME280;45933;51.336;12.612;2023-03-07T09:24:20;97962.56;;;5.87;56.71
60061;BME280;45933;51.336;12.612;2023-03-07T09:27:07;97945.84;;;5.61;57.03
60061;BME280;45933;51.336;12.612;2023-03-07T09:29:41;97940.03;;;5.93;57.55
60061;BME280;45933;51.336;12.612;2023-03-07T09:32:06;97927.00;;;5.98;57.32
60061;BME280;45933;51.336;12.612;2023-03-07T09:34:32;97932.84;;;6.08;57.15
60061;BME280;45933;51.336;12.612;2023-03-07T09:36:57;97946.63;;;6.08;57.04
60061;BME280;45933;51.336;12.612;2023-03-07T09:39:22;97926.41;;;6.25;56.73
60061;BME280;45933;51.336;12.612;2023-03-07T09:42:19;97930.41;;;6.39;56.67
60061;BME280;45933;51.336;12.612;2023-03-07T09:47:42;97910.31;;;6.50;56.58
60061;BME280;45933;51.336;12.612;2023-03-07T09:51:12;97906.88;;;6.49;56.21
60061;BME280;45933;51.336;12.612;2023-03-07T09:53:20;97904.25;;;6.51;55.84
60061;BME280;45933;51.336;12.612;2023-03-07T09:55:47;97903.34;;;6.52;55.91
60061;BME280;45933;51.336;12.612;2023-03-07T09:58:19;97918.97;;;6.49;56.00
60061;BME280;45933;51.336;12.612;2023-03-07T10:00:50;97914.50;;;6.55;56.34
60061;BME280;45933;51.336;12.612;2023-03-07T10:03:28;97900.75;;;6.52;55.47
60061;BME280;45933;51.336;12.612;2023-03-07T10:06:02;97900.59;;;6.58;55.68
60061;BME280;45933;51.336;12.612;2023-03-07T10:08:31;97903.44;;;6.49;55.50
60061;BME280;45933;51.336;12.612;2023-03-07T10:11:28;97894.41;;;6.64;55.56
60061;BME280;45933;51.336;12.612;2023-03-07T10:14:21;97889.41;;;6.58;55.22
60061;BME280;45933;51.336;12.612;2023-03-07T10:17:02;97898.97;;;6.55;54.80
60061;BME280;45933;51.336;12.612;2023-03-07T10:19:41;97942.16;;;6.52;55.38
60061;BME280;45933;51.336;12.612;2023-03-07T10:22:23;97890.97;;;6.65;55.62
60061;BME280;45933;51.336;12.612;2023-03-07T10:25:06;97911.53;;;6.69;55.57
60061;BME280;45933;51.336;12.612;2023-03-07T10:27:32;97889.97;;;6.69;55.54
60061;BME280;45933;51.336;12.612;2023-03-07T10:29:59;97904.75;;;6.65;55.19
60061;BME280;45933;51.336;12.612;2023-03-07T10:32:48;97884.69;;;6.75;55.43
60061;BME280;45933;51.336;12.612;2023-03-07T10:35:21;97883.16;;;6.66;55.05
60061;BME280;45933;51.336;12.612;2023-03-07T10:37:56;97881.09;;;6.80;55.31
60061;BME280;45933;51.336;12.612;2023-03-07T10:43:22;97870.72;;;6.80;54.98
60061;BME280;45933;51.336;12.612;2023-03-07T10:45:52;97876.81;;;6.78;55.43
60061;BME280;45933;51.336;12.612;2023-03-07T10:48:22;97884.41;;;6.84;55.26
60061;BME280;45933;51.336;12.612;2023-03-07T10:51:52;97880.06;;;6.86;54.84
60061;BME280;45933;51.336;12.612;2023-03-07T10:53:46;97874.00;;;6.87;54.87
60061;BME280;45933;51.336;12.612;2023-03-07T10:56:16;97894.94;;;6.78;55.05
60061;BME280;45933;51.336;12.612;2023-03-07T11:01:23;97866.38;;;6.81;56.20
60061;BME280;45933;51.336;12.612;2023-03-07T11:04:20;97864.66;;;6.81;56.06
60061;BME280;45933;51.336;12.612;2023-03-07T11:09:28;97851.69;;;6.81;56.74
60061;BME280;45933;51.336;12.612;2023-03-07T11:14:28;97859.38;;;6.85;56.24
60061;BME280;45933;51.336;12.612;2023-03-07T11:16:59;97856.75;;;6.86;56.11
60061;BME280;45933;51.336;12.612;2023-03-07T11:19:40;97853.91;;;6.97;56.45
60061;BME280;45933;51.336;12.612;2023-03-07T11:22:30;97847.00;;;6.96;55.52
60061;BME280;45933;51.336;12.612;2023-03-07T11:25:07;97843.16;;;6.78;54.63
60061;BME280;45933;51.336;12.612;2023-03-07T11:27:37;97835.94;;;6.89;54.44
60061;BME280;45933;51.336;12.612;2023-03-07T11:30:51;97840.34;;;6.87;54.24
60061;BME280;45933;51.336;12.612;2023-03-07T11:36:21;97820.09;;;7.01;54.38
60061;BME280;45933;51.336;12.612;2023-03-07T11:39:06;97823.03;;;6.88;53.68
60061;BME280;45933;51.336;12.612;2023-03-07T11:41:40;97815.22;;;6.89;53.21
60061;BME280;45933;51.336;12.612;2023-03-07T11:47:42;97801.50;;;7.17;52.92
60061;BME280;45933;51.336;12.612;2023-03-07T11:50:24;97806.63;;;7.20;52.70
60061;BME280;45933;51.336;12.612;2023-03-07T12:07:04;97776.28;;;7.53;52.44
60061;BME280;45933;51.336;12.612;2023-03-07T12:12:47;97760.38;;;7.64;51.62
60061;BME280;45933;51.336;12.612;2023-03-07T12:15:31;97771.38;;;7.72;52.42
60061;BME280;45933;51.336;12.612;2023-03-07T12:18:18;97774.16;;;7.66;51.47
60061;BME280;45933;51.336;12.612;2023-03-07T12:23:45;97758.72;;;7.89;51.94
60061;BME280;45933;51.336;12.612;2023-03-07T12:26:23;97771.03;;;7.82;50.97
60061;BME280;45933;51.336;12.612;2023-03-07T12:28:59;97763.50;;;7.75;50.10
60061;BME280;45933;51.336;12.612;2023-03-07T12:31:30;97764.03;;;7.86;50.30
60061;BME280;45933;51.336;12.612;2023-03-07T12:34:03;97755.22;;;7.90;50.22
60061;BME280;45933;51.336;12.612;2023-03-07T12:36:41;97769.38;;;7.80;49.68
60061;BME280;45933;51.336;12.612;2023-03-07T12:39:23;97761.72;;;7.77;50.19
60061;BME280;45933;51.336;12.612;2023-03-07T12:44:31;97761.81;;;8.00;50.90
60061;BME280;45933;51.336;12.612;2023-03-07T12:49:59;97746.59;;;7.90;50.57
60061;BME280;45933;51.336;12.612;2023-03-07T12:52:44;97751.75;;;7.91;50.96
60061;BME280;45933;51.336;12.612;2023-03-07T12:55:22;97742.56;;;7.81;50.80
60061;BME280;45933;51.336;12.612;2023-03-07T12:58:06;97753.75;;;7.83;50.33
60061;BME280;45933;51.336;12.612;2023-03-07T13:00:36;97758.78;;;7.88;50.22
60061;BME280;45933;51.336;12.612;2023-03-07T13:03:04;97762.41;;;7.82;49.79
60061;BME280;45933;51.336;12.612;2023-03-07T13:05:33;97752.97;;;7.79;50.46
60061;BME280;45933;51.336;12.612;2023-03-07T13:08:00;97769.72;;;7.69;51.58
60061;BME280;45933;51.336;12.612;2023-03-07T13:10:26;97770.47;;;7.73;52.13
60061;BME280;45933;51.336;12.612;2023-03-07T13:12:52;97799.41;;;7.59;52.65
60061;BME280;45933;51.336;12.612;2023-03-07T13:30:28;97780.94;;;7.12;55.36
60061;BME280;45933;51.336;12.612;2023-03-07T13:33:00;97780.88;;;7.14;55.32
60061;BME280;45933;51.336;12.612;2023-03-07T13:45:52;97756.81;;;7.10;54.84
60061;BME280;45933;51.336;12.612;2023-03-07T13:53:38;97775.75;;;7.12;54.46
60061;BME280;45933;51.336;12.612;2023-03-07T13:58:48;97769.69;;;7.13;53.75
60061;BME280;45933;51.336;12.612;2023-03-07T14:03:49;97761.78;;;7.18;53.24
60061;BME280;45933;51.336;12.612;2023-03-07T14:06:21;97764.25;;;7.21;53.63
60061;BME280;45933;51.336;12.612;2023-03-07T14:08:48;97756.63;;;7.16;53.60
60061;BME280;45933;51.336;12.612;2023-03-07T14:11:37;97768.41;;;7.26;53.28
60061;BME280;45933;51.336;12.612;2023-03-07T14:16:50;97787.44;;;7.25;53.15
60061;BME280;45933;51.336;12.612;2023-03-07T14:19:36;97768.34;;;7.29;52.73
60061;BME280;45933;51.336;12.612;2023-03-07T14:27:58;97755.44;;;7.28;53.27
60061;BME280;45933;51.336;12.612;2023-03-07T14:30:30;97766.72;;;7.25;53.10
60061;BME280;45933;51.336;12.612;2023-03-07T14:32:56;97775.97;;;7.34;53.99
60061;BME280;45933;51.336;12.612;2023-03-07T14:35:36;97782.94;;;7.32;53.48
60061;BME280;45933;51.336;12.612;2023-03-07T14:38:05;97794.13;;;7.34;54.22
60061;BME280;45933;51.336;12.612;2023-03-07T14:40:32;97791.56;;;7.32;54.49